Time;durP1;ratioP1;P1;durP2;ratioP2;P2;SDS_P1;SDS_P2;PMS_P1;PMS_P2;Temp;Humidity;BMP_temperature;BMP_pressure;BME280_temperature;BME280_humidity;BME280_pressure;Samples;Min_cycle;Max_cycle;Signal;HPM_P1;HPM_P2
2021/01/07 00:00:26;;;;;;;6.40;2.80;;;4.60;99.90;;;;;;5012091;28;20200;-76
2021/01/07 00:02:52;;;;;;;5.40;3.22;;;4.60;99.90;;;;;;5013094;28;21653;-76
2021/01/07 00:05:19;;;;;;;10.80;3.13;;;4.60;99.90;;;;;;5009560;28;20209;-76
2021/01/07 00:07:45;;;;;;;5.25;3.08;;;4.60;99.90;;;;;;5012260;28;20205;-75
2021/01/07 00:10:12;;;;;;;7.10;3.25;;;4.60;99.90;;;;;;5010876;28;20216;-76
2021/01/07 00:12:39;;;;;;;8.00;3.20;;;4.50;99.90;;;;;;5012606;28;20203;-76
2021/01/07 00:15:06;;;;;;;6.13;3.78;;;4.50;99.90;;;;;;5011566;28;20208;-78
2021/01/07 00:17:33;;;;;;;8.02;3.80;;;4.50;99.90;;;;;;5010176;28;20218;-77
2021/01/07 00:20:00;;;;;;;9.30;4.35;;;4.50;99.90;;;;;;5010929;28;20205;-76
2021/01/07 00:22:26;;;;;;;7.60;4.22;;;4.50;99.90;;;;;;5012876;28;20220;-76
2021/01/07 00:24:52;;;;;;;10.05;4.00;;;4.50;99.90;;;;;;5010486;28;20231;-76
2021/01/07 00:27:19;;;;;;;7.05;4.22;;;4.50;99.90;;;;;;5011584;28;20212;-76
2021/01/07 00:29:45;;;;;;;7.80;4.57;;;4.50;99.90;;;;;;5013122;28;20215;-76
2021/01/07 00:32:11;;;;;;;10.02;4.05;;;4.50;99.90;;;;;;5011388;28;20232;-76
2021/01/07 00:34:38;;;;;;;6.85;4.15;;;4.40;99.90;;;;;;5010860;28;20204;-75
2021/01/07 00:37:05;;;;;;;7.25;4.30;;;4.40;99.90;;;;;;5011586;28;20211;-76
2021/01/07 00:39:31;;;;;;;7.18;4.47;;;4.40;99.90;;;;;;5010433;28;20696;-77
2021/01/07 00:41:59;;;;;;;8.35;4.85;;;4.40;99.90;;;;;;5010600;28;20618;-77
2021/01/07 00:44:26;;;;;;;10.32;4.10;;;4.50;99.90;;;;;;5012305;28;20195;-76
2021/01/07 00:46:53;;;;;;;6.47;4.18;;;4.40;99.90;;;;;;5011540;28;20246;-76
2021/01/07 00:49:20;;;;;;;7.15;3.85;;;4.50;99.90;;;;;;5010522;28;20287;-76
2021/01/07 00:51:48;;;;;;;8.93;3.88;;;4.40;99.90;;;;;;5005868;28;20200;-77
2021/01/07 00:54:18;;;;;;;8.27;4.03;;;4.40;99.90;;;;;;5010504;28;20224;-76
2021/01/07 00:56:45;;;;;;;8.23;3.80;;;4.40;99.90;;;;;;5009869;28;20287;-76
2021/01/07 00:59:16;;;;;;;6.18;3.85;;;4.40;99.90;;;;;;5010302;28;20727;-76
2021/01/07 01:01:44;;;;;;;7.22;3.30;;;4.40;99.90;;;;;;5010214;28;20207;-75
2021/01/07 01:04:10;;;;;;;7.88;3.75;;;4.40;99.90;;;;;;5007825;28;20761;-75
2021/01/07 01:06:37;;;;;;;7.47;3.50;;;4.40;99.90;;;;;;5005827;28;20231;-75
2021/01/07 01:09:05;;;;;;;9.05;3.03;;;4.40;99.90;;;;;;5009545;28;20673;-76
2021/01/07 01:11:37;;;;;;;7.38;4.07;;;4.40;99.90;;;;;;5008149;28;20208;-76
2021/01/07 01:14:04;;;;;;;6.72;3.50;;;4.40;99.90;;;;;;5008485;28;20216;-77
2021/01/07 01:16:31;;;;;;;6.38;3.78;;;4.40;99.90;;;;;;5010056;28;20212;-76
2021/01/07 01:18:57;;;;;;;9.73;4.22;;;4.40;99.90;;;;;;5011658;28;20219;-76
2021/01/07 01:21:23;;;;;;;5.85;3.22;;;4.40;99.90;;;;;;5008298;28;20204;-76
2021/01/07 01:23:50;;;;;;;6.53;3.20;;;4.40;99.90;;;;;;5009206;28;20220;-76
2021/01/07 01:26:17;;;;;;;5.63;3.10;;;4.40;99.90;;;;;;5010349;28;20212;-76
2021/01/07 01:28:43;;;;;;;7.53;3.28;;;4.40;99.90;;;;;;5009789;28;20196;-76
2021/01/07 01:31:11;;;;;;;5.15;2.92;;;4.40;99.90;;;;;;5009718;28;20574;-76
2021/01/07 01:33:37;;;;;;;6.15;3.03;;;4.40;99.90;;;;;;5008273;28;20204;-75
2021/01/07 01:36:04;;;;;;;5.57;2.90;;;4.40;99.90;;;;;;5009844;28;20201;-75
2021/01/07 01:38:30;;;;;;;5.80;3.00;;;4.40;99.90;;;;;;5011188;28;20591;-76
2021/01/07 01:41:00;;;;;;;5.60;2.80;;;4.50;99.90;;;;;;5009450;28;20200;-76
2021/01/07 01:43:28;;;;;;;6.13;2.95;;;4.50;99.90;;;;;;5009959;28;20649;-76
2021/01/07 01:45:54;;;;;;;4.57;2.60;;;4.40;99.90;;;;;;5007557;28;20228;-76
2021/01/07 01:48:21;;;;;;;10.88;3.13;;;4.50;99.90;;;;;;5011337;28;20660;-75
2021/01/07 01:50:47;;;;;;;4.65;2.80;;;4.50;99.90;;;;;;5005981;28;20216;-75
2021/01/07 01:53:14;;;;;;;4.47;2.20;;;4.40;99.90;;;;;;5010243;28;20200;-76
2021/01/07 01:55:41;;;;;;;4.82;2.38;;;4.40;99.90;;;;;;5010099;28;20239;-75
2021/01/07 01:58:09;;;;;;;4.00;2.70;;;4.40;99.90;;;;;;5007328;28;20268;-75
2021/01/07 02:00:36;;;;;;;5.70;2.60;;;4.40;99.90;;;;;;5007757;28;20196;-75
2021/01/07 02:03:06;;;;;;;5.00;2.67;;;4.40;99.90;;;;;;5008114;28;20212;-75
2021/01/07 02:05:34;;;;;;;5.80;2.60;;;4.40;99.90;;;;;;5010220;28;20232;-75
2021/01/07 02:08:03;;;;;;;3.30;2.50;;;4.40;99.90;;;;;;5009343;28;20278;-75
2021/01/07 02:10:30;;;;;;;5.70;2.60;;;4.30;99.90;;;;;;5009351;28;20197;-75
2021/01/07 02:12:58;;;;;;;10.45;2.90;;;4.30;99.90;;;;;;5010641;28;20286;-75
2021/01/07 02:15:24;;;;;;;5.75;2.13;;;4.30;99.90;;;;;;5007927;28;20339;-75
2021/01/07 02:17:51;;;;;;;4.22;2.30;;;4.30;99.90;;;;;;5010304;28;20197;-75
2021/01/07 02:20:23;;;;;;;5.10;2.45;;;4.20;99.90;;;;;;5008942;28;20228;-76
2021/01/07 02:22:53;;;;;;;4.47;2.70;;;4.30;99.90;;;;;;5009992;28;20669;-75
2021/01/07 02:25:20;;;;;;;4.78;2.45;;;4.30;99.90;;;;;;5008858;28;20204;-76
2021/01/07 02:27:46;;;;;;;3.47;2.67;;;4.30;99.90;;;;;;5010298;28;20575;-75
2021/01/07 02:30:14;;;;;;;3.90;2.20;;;4.30;99.90;;;;;;5009141;28;20196;-75
2021/01/07 02:32:40;;;;;;;4.75;2.70;;;4.30;99.90;;;;;;5010226;28;20286;-75
2021/01/07 02:35:08;;;;;;;6.70;2.70;;;4.30;99.90;;;;;;5008314;28;20202;-76
2021/01/07 02:37:36;;;;;;;7.03;2.65;;;4.30;99.90;;;;;;5010403;28;21038;-75
2021/01/07 02:40:04;;;;;;;5.03;2.25;;;4.30;99.90;;;;;;5006712;28;20641;-76
2021/01/07 02:42:34;;;;;;;6.47;2.53;;;4.30;99.90;;;;;;5008910;28;20228;-76
2021/01/07 02:45:00;;;;;;;6.85;2.97;;;4.30;99.90;;;;;;5008648;28;20324;-75
2021/01/07 02:47:26;;;;;;;5.00;2.53;;;4.30;99.90;;;;;;5010111;28;20715;-75
2021/01/07 02:49:53;;;;;;;6.28;2.25;;;4.20;99.90;;;;;;5004821;28;20573;-75
2021/01/07 02:52:19;;;;;;;5.93;2.53;;;4.20;99.90;;;;;;5009698;28;20200;-75
2021/01/07 02:54:46;;;;;;;5.60;2.50;;;4.20;99.90;;;;;;5009263;28;20209;-75
2021/01/07 02:57:12;;;;;;;6.05;2.50;;;4.20;99.90;;;;;;5008551;28;20209;-76
2021/01/07 02:59:39;;;;;;;5.15;2.38;;;4.20;99.90;;;;;;5009125;28;20262;-76
2021/01/07 03:02:05;;;;;;;5.70;2.40;;;4.20;99.90;;;;;;5008237;28;20224;-75
2021/01/07 03:04:31;;;;;;;4.70;2.47;;;4.30;99.90;;;;;;5013838;28;20700;-75
2021/01/07 03:06:57;;;;;;;11.48;2.75;;;4.30;99.90;;;;;;5011238;28;20200;-76
2021/01/07 03:09:27;;;;;;;3.85;2.25;;;4.30;99.90;;;;;;5012308;28;20243;-75
2021/01/07 03:11:54;;;;;;;6.07;2.63;;;4.30;99.90;;;;;;5012177;28;20223;-77
2021/01/07 03:14:20;;;;;;;4.82;2.00;;;4.30;99.90;;;;;;5013302;28;20657;-75
2021/01/07 03:16:46;;;;;;;2.78;2.17;;;4.30;99.90;;;;;;5011409;28;20205;-75
2021/01/07 03:19:13;;;;;;;9.38;2.20;;;4.30;99.90;;;;;;5013103;28;20219;-76
2021/01/07 03:21:42;;;;;;;3.20;2.25;;;4.30;99.90;;;;;;5008782;28;20216;-77
2021/01/07 03:24:09;;;;;;;4.93;2.10;;;4.30;99.90;;;;;;5012173;28;20572;-74
2021/01/07 03:26:36;;;;;;;3.00;1.77;;;4.30;99.90;;;;;;5011119;28;20212;-76
2021/01/07 03:29:04;;;;;;;4.07;1.90;;;4.40;99.90;;;;;;5013399;28;20201;-75
2021/01/07 03:31:31;;;;;;;8.88;2.17;;;4.40;99.90;;;;;;5011974;28;20285;-78
2021/01/07 03:33:57;;;;;;;2.90;1.80;;;4.40;99.90;;;;;;5013999;28;20661;-75
2021/01/07 03:36:24;;;;;;;4.15;1.88;;;4.40;99.90;;;;;;5012225;28;20205;-75
2021/01/07 03:38:50;;;;;;;4.30;1.60;;;4.30;99.90;;;;;;5011973;28;20200;-75
2021/01/07 03:41:17;;;;;;;3.88;1.52;;;4.30;99.90;;;;;;5009505;28;20196;-75
2021/01/07 03:43:43;;;;;;;5.90;1.88;;;4.30;99.90;;;;;;5011529;28;20235;-76
2021/01/07 03:46:10;;;;;;;2.65;1.67;;;4.30;99.90;;;;;;5012112;28;20204;-76
2021/01/07 03:48:36;;;;;;;4.95;2.47;;;4.30;99.90;;;;;;5013197;28;20215;-76
2021/01/07 03:51:03;;;;;;;7.45;1.73;;;4.30;99.90;;;;;;5004615;28;20205;-75
2021/01/07 03:53:29;;;;;;;3.58;1.40;;;4.30;99.90;;;;;;5027216;28;20554;-75
2021/01/07 03:55:56;;;;;;;4.32;1.70;;;4.30;99.90;;;;;;5010291;28;20200;-75
2021/01/07 03:58:22;;;;;;;3.50;1.50;;;4.30;99.90;;;;;;5011417;28;20201;-75
2021/01/07 04:00:48;;;;;;;4.97;1.50;;;4.30;99.90;;;;;;5012146;28;20679;-75
2021/01/07 04:03:16;;;;;;;2.13;1.50;;;4.30;99.90;;;;;;5011240;28;20227;-75
2021/01/07 04:05:42;;;;;;;5.25;1.60;;;4.30;99.90;;;;;;5012177;28;20212;-75
2021/01/07 04:08:08;;;;;;;5.97;1.80;;;4.30;99.90;;;;;;5012387;28;20204;-75
2021/01/07 04:10:34;;;;;;;6.00;2.00;;;4.30;99.90;;;;;;5010590;28;20200;-75
2021/01/07 04:13:01;;;;;;;4.25;1.77;;;4.40;99.90;;;;;;5013900;28;20196;-75
2021/01/07 04:15:27;;;;;;;7.05;2.30;;;4.30;99.90;;;;;;5013158;28;20192;-75
2021/01/07 04:17:53;;;;;;;4.18;1.83;;;4.40;99.90;;;;;;5011318;28;20216;-75
2021/01/07 04:20:20;;;;;;;3.47;2.20;;;4.40;99.90;;;;;;5012467;28;20196;-73
2021/01/07 04:22:47;;;;;;;5.18;1.85;;;4.40;99.90;;;;;;5012966;28;20212;-74
2021/01/07 04:25:13;;;;;;;4.38;1.80;;;4.40;99.90;;;;;;5013203;28;20593;-75
2021/01/07 04:27:39;;;;;;;6.72;1.92;;;4.30;99.90;;;;;;5009036;28;20208;-75
2021/01/07 04:30:07;;;;;;;3.45;1.88;;;4.40;99.90;;;;;;5012539;28;20211;-75
2021/01/07 04:32:33;;;;;;;5.57;2.50;;;4.40;99.90;;;;;;5011889;28;20232;-75
2021/01/07 04:34:59;;;;;;;8.45;2.40;;;4.40;99.90;;;;;;5012954;28;20199;-75
2021/01/07 04:37:27;;;;;;;5.88;2.20;;;4.40;99.90;;;;;;5009337;28;20204;-76
2021/01/07 04:39:53;;;;;;;4.82;2.42;;;4.40;99.90;;;;;;5013659;28;20201;-75
2021/01/07 04:42:19;;;;;;;4.40;2.30;;;4.40;99.90;;;;;;5010847;28;20315;-75
2021/01/07 04:44:46;;;;;;;4.68;2.50;;;4.40;99.90;;;;;;5012462;28;20720;-75
2021/01/07 04:47:13;;;;;;;4.18;2.63;;;4.40;99.90;;;;;;5012290;28;20290;-75
2021/01/07 04:49:39;;;;;;;4.03;2.50;;;4.40;99.90;;;;;;5010965;28;20208;-75
2021/01/07 04:52:06;;;;;;;8.70;3.50;;;4.40;99.90;;;;;;5011806;28;20574;-76
2021/01/07 04:54:33;;;;;;;5.53;2.75;;;4.40;99.90;;;;;;5012894;28;20216;-75
2021/01/07 04:56:59;;;;;;;8.32;3.45;;;4.40;99.90;;;;;;5010560;28;20223;-75
2021/01/07 04:59:26;;;;;;;6.40;3.45;;;4.50;99.90;;;;;;5011865;28;20259;-75
2021/01/07 05:01:53;;;;;;;5.00;3.25;;;4.40;99.90;;;;;;5010743;28;20581;-74
2021/01/07 05:04:19;;;;;;;6.25;3.60;;;4.40;99.90;;;;;;5012120;28;20255;-75
2021/01/07 05:06:47;;;;;;;7.28;4.10;;;4.40;99.90;;;;;;5010104;28;20204;-75
2021/01/07 05:09:14;;;;;;;7.82;3.70;;;4.50;99.90;;;;;;5012157;28;20665;-75
2021/01/07 05:11:41;;;;;;;7.65;3.75;;;4.50;99.90;;;;;;5011729;28;20212;-75
2021/01/07 05:14:10;;;;;;;8.25;3.72;;;4.50;99.90;;;;;;5011682;28;20380;-76
2021/01/07 05:16:37;;;;;;;8.50;3.38;;;4.50;99.90;;;;;;5010312;28;20543;-75
2021/01/07 05:19:05;;;;;;;7.45;3.35;;;4.50;99.90;;;;;;5012531;28;20669;-75
2021/01/07 05:21:33;;;;;;;5.28;2.80;;;4.50;99.90;;;;;;5010242;28;20208;-75
2021/01/07 05:23:59;;;;;;;8.25;2.60;;;4.50;99.90;;;;;;5013102;28;20208;-76
2021/01/07 05:26:26;;;;;;;4.93;3.40;;;4.50;99.90;;;;;;5013982;28;20205;-75
2021/01/07 05:28:55;;;;;;;3.42;1.60;;;4.50;99.90;;;;;;5010564;28;20203;-75
2021/01/07 05:31:23;;;;;;;3.55;1.63;;;4.50;99.90;;;;;;5010815;28;20268;-75
2021/01/07 05:33:50;;;;;;;3.78;1.23;;;4.50;99.90;;;;;;5012624;28;20193;-76
2021/01/07 05:36:21;;;;;;;2.13;1.10;;;4.50;99.90;;;;;;5009807;28;20583;-76
2021/01/07 05:38:48;;;;;;;2.05;0.88;;;4.50;99.90;;;;;;5011582;28;20283;-74
2021/01/07 05:41:16;;;;;;;3.42;0.80;;;4.50;99.90;;;;;;5009627;28;20208;-75
2021/01/07 05:43:43;;;;;;;2.38;0.60;;;4.50;99.90;;;;;;5009208;28;20287;-74
2021/01/07 05:46:11;;;;;;;1.25;0.80;;;4.50;99.90;;;;;;5010452;28;20637;-74
2021/01/07 05:48:38;;;;;;;2.03;0.82;;;4.50;99.90;;;;;;5011290;28;20192;-75
2021/01/07 05:51:11;;;;;;;2.38;0.98;;;4.50;99.90;;;;;;5010660;28;20208;-73
2021/01/07 05:53:38;;;;;;;1.65;0.73;;;4.50;99.90;;;;;;5011220;28;20201;-76
2021/01/07 05:56:07;;;;;;;1.80;0.90;;;4.50;99.90;;;;;;5008805;28;20200;-76
2021/01/07 05:58:36;;;;;;;4.18;0.95;;;4.50;99.90;;;;;;5018495;28;20216;-76
2021/01/07 06:01:04;;;;;;;3.60;1.20;;;4.50;99.90;;;;;;5009568;28;20588;-76
2021/01/07 06:03:37;;;;;;;5.97;1.13;;;4.50;99.90;;;;;;5012152;28;20239;-76
2021/01/07 06:06:09;;;;;;;2.00;1.08;;;4.50;99.90;;;;;;5004362;28;20198;-78
2021/01/07 06:08:40;;;;;;;9.65;3.65;;;4.60;99.90;;;;;;5009426;28;20302;-74
2021/01/07 06:11:07;;;;;;;4.18;1.52;;;4.50;99.90;;;;;;5008503;28;20580;-75
2021/01/07 06:13:34;;;;;;;5.95;1.17;;;4.50;99.90;;;;;;5018060;28;20195;-75
2021/01/07 06:16:02;;;;;;;8.15;1.30;;;4.60;99.90;;;;;;5012519;28;20212;-76
2021/01/07 06:18:28;;;;;;;4.45;0.90;;;4.50;99.90;;;;;;5018363;28;20204;-75
2021/01/07 06:21:02;;;;;;;6.85;1.17;;;4.50;99.90;;;;;;5012781;28;20209;-76
2021/01/07 06:23:31;;;;;;;5.32;1.05;;;4.60;99.90;;;;;;5009011;28;20298;-77
2021/01/07 06:26:22;;;;;;;4.78;0.98;;;4.60;99.90;;;;;;5009746;28;20207;-76
2021/01/07 06:28:53;;;;;;;3.97;0.75;;;4.60;99.90;;;;;;5009993;28;20227;-76
2021/01/07 06:31:20;;;;;;;0.63;0.63;;;4.60;99.90;;;;;;5011273;28;20248;-76
2021/01/07 06:33:50;;;;;;;3.92;0.70;;;4.60;99.90;;;;;;5016107;28;20303;-76
2021/01/07 06:36:17;;;;;;;2.22;0.70;;;4.50;99.90;;;;;;5009113;28;20304;-76
2021/01/07 06:38:51;;;;;;;1.70;0.80;;;4.50;99.90;;;;;;5014501;28;20660;-77
2021/01/07 06:41:21;;;;;;;5.00;1.08;;;4.50;99.90;;;;;;5013550;28;20203;-77
2021/01/07 06:43:49;;;;;;;1.85;0.90;;;4.60;99.90;;;;;;5014256;28;20223;-76
2021/01/07 06:46:40;;;;;;;2.50;1.08;;;4.50;99.90;;;;;;5013639;28;20239;-77
2021/01/07 06:49:27;;;;;;;3.20;0.95;;;4.60;99.90;;;;;;5013788;28;20201;-77
2021/01/07 06:51:57;;;;;;;8.25;1.23;;;4.60;99.90;;;;;;5010967;28;20207;-78
2021/01/07 06:54:32;;;;;;;4.03;1.52;;;4.60;99.90;;;;;;5013117;28;20201;-77
2021/01/07 06:56:59;;;;;;;3.53;1.33;;;4.60;99.90;;;;;;5012648;28;20703;-74
2021/01/07 06:59:25;;;;;;;10.60;1.80;;;4.60;99.90;;;;;;5013318;28;20263;-77
2021/01/07 07:01:54;;;;;;;10.20;1.88;;;4.60;99.90;;;;;;5013472;28;20200;-76
2021/01/07 07:04:25;;;;;;;7.45;1.40;;;4.60;99.90;;;;;;5011770;28;20227;-76
2021/01/07 07:06:59;;;;;;;7.20;1.55;;;4.60;99.90;;;;;;5013238;28;20866;-76
2021/01/07 07:09:26;;;;;;;11.02;1.60;;;4.50;99.90;;;;;;5013341;28;20224;-77
2021/01/07 07:11:54;;;;;;;5.40;1.30;;;4.60;99.90;;;;;;5011972;28;20675;-77
2021/01/07 07:14:21;;;;;;;12.63;1.30;;;4.50;99.90;;;;;;5013672;28;20196;-77
2021/01/07 07:16:48;;;;;;;6.57;1.10;;;4.60;99.90;;;;;;5011607;28;20208;-78
2021/01/07 07:19:24;;;;;;;11.88;1.67;;;4.50;99.90;;;;;;5013166;28;20220;-77
2021/01/07 07:21:57;;;;;;;7.85;1.00;;;4.50;99.90;;;;;;5013026;28;20204;-76
2021/01/07 07:24:35;;;;;;;8.27;1.27;;;4.50;99.90;;;;;;5011353;28;20308;-76
2021/01/07 07:27:04;;;;;;;4.03;1.08;;;4.50;99.90;;;;;;5012663;28;20204;-76
2021/01/07 07:29:34;;;;;;;5.50;1.40;;;4.50;99.90;;;;;;5011856;28;20680;-76
2021/01/07 07:32:01;;;;;;;3.92;1.20;;;4.50;99.90;;;;;;5016596;28;20244;-78
2021/01/07 07:34:31;;;;;;;6.57;1.23;;;4.50;99.90;;;;;;5015626;28;20493;-77
2021/01/07 07:36:59;;;;;;;2.67;1.23;;;4.50;99.90;;;;;;5017719;28;20227;-76
2021/01/07 07:39:26;;;;;;;8.40;1.58;;;4.50;99.90;;;;;;5018367;28;20219;-77
2021/01/07 07:42:09;;;;;;;7.38;1.80;;;4.50;99.90;;;;;;5011506;28;20570;-78
2021/01/07 07:44:36;;;;;;;8.80;2.25;;;4.50;99.90;;;;;;5011572;28;20204;-75
2021/01/07 07:47:02;;;;;;;5.53;2.30;;;4.50;99.90;;;;;;5012065;28;20212;-76
2021/01/07 07:49:29;;;;;;;8.25;1.85;;;4.50;99.90;;;;;;5011091;28;20224;-76
2021/01/07 07:51:55;;;;;;;5.93;1.50;;;4.50;99.90;;;;;;5013104;28;20211;-78
2021/01/07 07:54:22;;;;;;;8.20;1.80;;;4.50;99.90;;;;;;5009970;28;20197;-76
2021/01/07 07:56:56;;;;;;;4.32;1.42;;;4.50;99.90;;;;;;5013460;28;20702;-78
2021/01/07 07:59:24;;;;;;;2.97;1.42;;;4.50;99.90;;;;;;5017360;28;20203;-76
2021/01/07 08:01:53;;;;;;;9.55;1.73;;;4.50;99.90;;;;;;5013291;28;20223;-76
2021/01/07 08:04:22;;;;;;;3.00;1.08;;;4.50;99.90;;;;;;5011012;28;20670;-76
2021/01/07 08:06:50;;;;;;;6.20;1.10;;;4.50;99.90;;;;;;5012334;28;20208;-77
2021/01/07 08:09:19;;;;;;;5.15;1.00;;;4.50;99.90;;;;;;5010488;28;20573;-77
2021/01/07 08:11:48;;;;;;;6.30;1.20;;;4.60;99.90;;;;;;5011132;28;20351;-77
2021/01/07 08:14:20;;;;;;;5.78;0.93;;;4.50;99.90;;;;;;5011463;28;20271;-77
2021/01/07 08:16:47;;;;;;;4.53;1.00;;;4.50;99.90;;;;;;5012591;28;20201;-76
2021/01/07 08:19:22;;;;;;;3.65;0.98;;;4.50;99.90;;;;;;5013686;28;20200;-76
2021/01/07 08:21:53;;;;;;;6.30;1.20;;;4.50;99.90;;;;;;5028295;28;20192;-78
2021/01/07 08:24:22;;;;;;;5.53;1.23;;;4.60;99.90;;;;;;5007399;28;20690;-77
2021/01/07 08:27:03;;;;;;;10.80;1.63;;;4.60;99.90;;;;;;5010270;28;20661;-77
2021/01/07 08:29:34;;;;;;;5.85;1.77;;;4.60;99.90;;;;;;5010568;28;20270;-77
2021/01/07 08:32:03;;;;;;;9.40;2.40;;;4.60;99.90;;;;;;5008395;28;20747;-77
2021/01/07 08:34:31;;;;;;;13.80;2.90;;;4.60;99.90;;;;;;5011647;28;20571;-78
2021/01/07 08:37:08;;;;;;;9.40;3.25;;;4.60;99.90;;;;;;5008139;28;20218;-77
2021/01/07 08:39:37;;;;;;;10.00;3.90;;;4.60;99.90;;;;;;5008730;28;20581;-76
2021/01/07 08:42:04;;;;;;;14.57;4.15;;;4.50;99.90;;;;;;5009678;28;20258;-76
2021/01/07 08:44:31;;;;;;;12.32;3.92;;;4.50;99.90;;;;;;5009648;28;20642;-79
2021/01/07 08:46:57;;;;;;;12.18;3.33;;;4.50;99.90;;;;;;5011185;28;20202;-77
2021/01/07 08:49:24;;;;;;;18.77;3.40;;;4.50;99.90;;;;;;5011992;28;20205;-77
2021/01/07 08:51:53;;;;;;;8.60;2.63;;;4.50;99.90;;;;;;5007346;28;21017;-76
2021/01/07 08:54:21;;;;;;;11.23;2.50;;;4.50;99.90;;;;;;5007200;28;20208;-76
2021/01/07 08:56:49;;;;;;;7.50;1.77;;;4.50;99.90;;;;;;5007833;28;20762;-76
2021/01/07 08:59:26;;;;;;;5.97;1.27;;;4.50;99.90;;;;;;5014951;28;20242;-77
2021/01/07 09:01:54;;;;;;;4.57;1.30;;;4.50;99.90;;;;;;5015631;28;20212;-78
2021/01/07 09:04:27;;;;;;;4.97;1.20;;;4.50;99.90;;;;;;5017382;28;20315;-77
2021/01/07 09:06:55;;;;;;;13.02;1.42;;;4.40;99.90;;;;;;5014130;28;20801;-77
2021/01/07 09:09:21;;;;;;;13.95;1.75;;;4.40;99.90;;;;;;5008317;28;20576;-78
2021/01/07 09:11:47;;;;;;;12.57;1.67;;;4.40;99.90;;;;;;5009089;28;20205;-76
2021/01/07 09:14:14;;;;;;;13.40;1.95;;;4.50;99.90;;;;;;5010912;28;20204;-78
2021/01/07 09:16:58;;;;;;;14.18;1.90;;;4.50;99.90;;;;;;5011451;28;20208;-77
2021/01/07 09:19:29;;;;;;;5.35;1.60;;;4.50;99.90;;;;;;5010701;28;20197;-79
2021/01/07 09:22:00;;;;;;;10.02;2.78;;;4.50;99.90;;;;;;5027796;28;20218;-76
2021/01/07 09:24:32;;;;;;;12.25;4.03;;;4.60;99.90;;;;;;5011894;28;20225;-76
2021/01/07 09:27:12;;;;;;;12.10;3.22;;;4.60;99.90;;;;;;5013521;28;20247;-76
2021/01/07 09:29:39;;;;;;;15.20;2.80;;;4.60;99.90;;;;;;5013448;28;20211;-76
2021/01/07 09:32:07;;;;;;;16.20;2.40;;;4.60;99.90;;;;;;5012282;28;20589;-77
2021/01/07 09:34:34;;;;;;;14.55;2.00;;;4.60;99.90;;;;;;5013413;28;20207;-77
2021/01/07 09:37:02;;;;;;;14.23;2.03;;;4.60;99.90;;;;;;5011848;28;20213;-76
2021/01/07 09:39:29;;;;;;;7.45;1.92;;;4.60;99.90;;;;;;5014027;28;20203;-78
2021/01/07 09:41:55;;;;;;;13.02;1.88;;;4.60;99.90;;;;;;5015203;28;20208;-77
2021/01/07 09:44:22;;;;;;;7.15;1.88;;;4.70;99.90;;;;;;5017033;28;20220;-77
2021/01/07 09:46:52;;;;;;;7.88;1.60;;;4.70;99.90;;;;;;5010739;28;20201;-76
2021/01/07 09:49:18;;;;;;;14.05;1.77;;;4.70;99.90;;;;;;5011358;28;20689;-76
2021/01/07 09:51:46;;;;;;;22.92;2.50;;;4.70;99.90;;;;;;5010697;28;20200;-77
2021/01/07 09:54:12;;;;;;;7.38;1.85;;;4.70;99.90;;;;;;5011079;28;20692;-76
2021/01/07 09:56:39;;;;;;;22.30;2.53;;;4.80;99.90;;;;;;5011439;28;20204;-76
2021/01/07 09:59:05;;;;;;;11.48;1.95;;;4.80;99.90;;;;;;5012488;28;20684;-76
2021/01/07 10:01:31;;;;;;;10.68;2.03;;;4.80;99.90;;;;;;5010431;28;20208;-75
2021/01/07 10:03:58;;;;;;;6.65;1.90;;;4.80;99.90;;;;;;5016016;28;20212;-77
2021/01/07 10:06:24;;;;;;;10.13;1.77;;;4.80;99.90;;;;;;5010571;28;20208;-77
2021/01/07 10:08:51;;;;;;;8.00;1.70;;;4.80;99.90;;;;;;5014809;28;20551;-77
2021/01/07 10:11:18;;;;;;;12.55;1.85;;;4.80;99.90;;;;;;5014354;28;20582;-77
2021/01/07 10:13:44;;;;;;;21.38;1.85;;;4.80;99.90;;;;;;5017004;28;20211;-77
2021/01/07 10:16:11;;;;;;;11.75;2.00;;;4.80;99.90;;;;;;5015262;28;20205;-77
2021/01/07 10:18:38;;;;;;;8.32;1.88;;;4.80;99.90;;;;;;5017525;28;20314;-77
2021/01/07 10:21:07;;;;;;;13.90;2.03;;;4.80;99.90;;;;;;5019487;28;20208;-77
2021/01/07 10:23:35;;;;;;;14.20;2.20;;;4.80;99.90;;;;;;5020377;28;20295;-75
2021/01/07 10:26:05;;;;;;;12.02;2.22;;;4.80;99.90;;;;;;5016902;28;20205;-76
2021/01/07 10:28:31;;;;;;;20.23;1.88;;;4.80;99.90;;;;;;5015846;28;20212;-75
2021/01/07 10:30:57;;;;;;;13.98;2.08;;;4.90;99.90;;;;;;5013300;28;20688;-77
2021/01/07 10:33:24;;;;;;;15.57;2.45;;;4.90;99.90;;;;;;5014140;28;20224;-77
2021/01/07 10:35:50;;;;;;;16.60;2.38;;;4.90;99.90;;;;;;5013567;28;20200;-77
2021/01/07 10:38:23;;;;;;;9.00;2.15;;;4.90;99.90;;;;;;5015905;28;20207;-76
2021/01/07 10:40:51;;;;;;;9.15;1.85;;;4.90;99.90;;;;;;5015303;28;20204;-78
2021/01/07 10:43:21;;;;;;;13.32;2.10;;;4.90;99.90;;;;;;5016806;28;20254;-79
2021/01/07 10:45:51;;;;;;;8.40;2.17;;;4.90;99.90;;;;;;5014913;28;20208;-76
2021/01/07 10:48:20;;;;;;;10.10;1.92;;;5.00;99.90;;;;;;5015113;28;20279;-77
2021/01/07 10:50:48;;;;;;;11.90;1.92;;;5.00;99.90;;;;;;5016601;28;20203;-76
2021/01/07 10:53:51;;;;;;;19.27;2.03;;;5.00;99.90;;;;;;5017439;28;21488;-77
2021/01/07 10:56:25;;;;;;;13.27;2.47;;;5.00;99.90;;;;;;5004564;28;20578;-77
2021/01/07 10:59:17;;;;;;;18.42;4.10;;;5.00;99.90;;;;;;5019216;28;20188;-77
2021/01/07 11:02:04;;;;;;;15.88;2.70;;;5.10;99.90;;;;;;5014433;28;20217;-77
2021/01/07 11:04:55;;;;;;;17.70;2.67;;;5.10;99.90;;;;;;5018411;28;20212;-77
2021/01/07 11:07:26;;;;;;;9.73;2.20;;;5.10;99.90;;;;;;5011718;28;20223;-78
2021/01/07 11:09:59;;;;;;;11.05;3.00;;;5.20;99.90;;;;;;5019015;28;20213;-77
2021/01/07 11:12:34;;;;;;;11.82;2.45;;;5.20;99.90;;;;;;5015231;28;20196;-77
2021/01/07 11:15:04;;;;;;;14.07;3.00;;;5.20;99.90;;;;;;5016589;28;20250;-78
2021/01/07 11:17:33;;;;;;;15.68;2.72;;;5.30;99.90;;;;;;5011498;28;20673;-77
2021/01/07 11:20:04;;;;;;;17.95;2.50;;;5.30;99.90;;;;;;5013355;28;20291;-78
2021/01/07 11:22:34;;;;;;;17.10;2.35;;;5.30;99.90;;;;;;5012545;28;20200;-77
2021/01/07 11:25:02;;;;;;;13.55;2.05;;;5.40;99.90;;;;;;5012953;28;20226;-76
2021/01/07 11:27:31;;;;;;;11.35;1.98;;;5.40;99.90;;;;;;5013514;28;20270;-77
2021/01/07 11:30:01;;;;;;;13.30;2.00;;;5.40;99.90;;;;;;5015992;28;20208;-77
2021/01/07 11:32:28;;;;;;;11.77;2.15;;;5.50;99.90;;;;;;5013469;28;20231;-76
2021/01/07 11:34:55;;;;;;;11.73;2.53;;;5.40;99.90;;;;;;5012929;28;20708;-76
2021/01/07 11:37:30;;;;;;;7.75;1.80;;;5.50;99.90;;;;;;5015677;28;20205;-77
2021/01/07 11:40:08;;;;;;;10.52;2.40;;;5.50;99.90;;;;;;5014349;28;20207;-78
2021/01/07 11:42:49;;;;;;;13.68;2.25;;;5.50;99.90;;;;;;5014037;28;20200;-77
2021/01/07 11:45:20;;;;;;;10.88;1.65;;;5.50;99.90;;;;;;5013025;28;20629;-77
2021/01/07 11:47:54;;;;;;;9.07;2.05;;;5.50;99.90;;;;;;5014609;28;20618;-79
2021/01/07 11:50:22;;;;;;;14.90;3.50;;;5.60;99.90;;;;;;5012828;28;20219;-77
2021/01/07 11:52:50;;;;;;;6.07;1.63;;;5.60;99.90;;;;;;5015347;28;20590;-77
2021/01/07 11:55:18;;;;;;;7.45;2.00;;;5.60;99.90;;;;;;5019457;28;20193;-78
2021/01/07 11:57:47;;;;;;;9.25;1.52;;;5.60;99.90;;;;;;5019327;28;20274;-79
2021/01/07 12:00:15;;;;;;;7.03;1.80;;;5.70;99.90;;;;;;5009695;28;20254;-78
2021/01/07 12:02:43;;;;;;;6.68;2.08;;;5.70;99.90;;;;;;5011602;28;20688;-77
2021/01/07 12:05:13;;;;;;;16.00;1.60;;;5.70;99.90;;;;;;5014102;28;20653;-78
2021/01/07 12:07:53;;;;;;;7.10;1.40;;;5.70;99.90;;;;;;5014486;28;20660;-77
2021/01/07 12:10:27;;;;;;;6.93;1.52;;;5.60;99.90;;;;;;5015512;28;20204;-77
2021/01/07 12:13:02;;;;;;;10.70;1.52;;;5.70;99.90;;;;;;5012375;28;20209;-77
2021/01/07 12:15:29;;;;;;;4.32;1.30;;;5.70;99.90;;;;;;5015283;28;20203;-76
2021/01/07 12:17:56;;;;;;;11.50;1.60;;;5.70;99.90;;;;;;5015732;28;20231;-78
2021/01/07 12:20:24;;;;;;;8.77;1.17;;;5.70;99.90;;;;;;5015419;28;20201;-77
2021/01/07 12:22:51;;;;;;;10.27;1.42;;;5.70;99.90;;;;;;5013317;28;20208;-77
2021/01/07 12:25:20;;;;;;;10.55;1.50;;;5.70;99.90;;;;;;5015353;28;20245;-77
2021/01/07 12:27:47;;;;;;;10.35;1.15;;;5.70;99.90;;;;;;5012577;28;20208;-77
2021/01/07 12:30:17;;;;;;;8.23;1.35;;;5.80;99.90;;;;;;5017069;28;20672;-79
2021/01/07 12:32:57;;;;;;;6.93;1.33;;;5.70;99.90;;;;;;5015559;28;20228;-75
2021/01/07 12:35:34;;;;;;;10.95;1.20;;;5.80;99.90;;;;;;5018321;28;20208;-78
2021/01/07 12:38:12;;;;;;;6.93;1.30;;;5.80;99.90;;;;;;5016579;28;20656;-81
2021/01/07 12:40:44;;;;;;;5.45;1.20;;;5.80;99.90;;;;;;5009686;28;20255;-79
2021/01/07 12:43:16;;;;;;;8.23;1.30;;;5.80;99.90;;;;;;5009642;28;20335;-77
2021/01/07 12:45:45;;;;;;;9.20;1.52;;;5.80;99.90;;;;;;5013400;28;20284;-77
2021/01/07 12:48:13;;;;;;;6.05;1.52;;;5.80;99.90;;;;;;5013011;28;20676;-80
2021/01/07 12:50:40;;;;;;;9.25;1.60;;;5.80;99.90;;;;;;5012032;28;20338;-78
2021/01/07 12:53:07;;;;;;;11.45;1.40;;;5.80;99.90;;;;;;5014008;28;20196;-77
2021/01/07 12:55:33;;;;;;;8.40;1.77;;;5.80;99.90;;;;;;5013947;28;20227;-80
2021/01/07 12:58:11;;;;;;;11.15;1.50;;;5.70;99.90;;;;;;5012166;28;20214;-78
2021/01/07 13:00:41;;;;;;;13.07;1.45;;;5.70;99.90;;;;;;5010216;28;20218;-78
2021/01/07 13:03:15;;;;;;;9.65;1.50;;;5.70;99.90;;;;;;5015361;28;20657;-79